Terminal Aerodrome Forecast
Issued by NWS Upton, NY

Home | Current Version | Previous Version | Text Only | Print | Product List | Glossary On
Versions: 1 2 3 4 5 6 7 8 9 10 11 12 13 14 15 16 17 18 19 20 21 22 23 24 25 26 27 28 29 30 31 32 33 34 35
000
FTUS41 KOKX 220200 AAA
TAFJFK
TAF AMD
KJFK 220241Z 2203/2306 24010KT P6SM SCT025 BKN150
     FM220600 29015KT P6SM SCT040 SCT150
     FM221200 30018G25KT P6SM SCT040
     FM230200 32014KT P6SM FEW040=

USA.gov is the U.S. government's official web portal to all federal, state and local government web resources and services.